createdAt,value
2023-01-13T00:02:30.106Z,1.23
2023-01-13T00:06:35.586Z,1.77
2023-01-13T00:10:41.256Z,4.90
2023-01-13T00:14:46.823Z,2.03
2023-01-13T00:18:52.278Z,1.43
2023-01-13T00:23:00.025Z,1.83
2023-01-13T00:27:05.511Z,3.23
2023-01-13T00:31:18.076Z,2.77
2023-01-13T00:35:23.575Z,1.47
2023-01-13T00:39:29.335Z,3.20
2023-01-13T00:43:36.864Z,4.10
2023-01-13T00:47:42.429Z,7.27
2023-01-13T00:51:47.845Z,2.50
2023-01-13T00:56:04.526Z,2.80
2023-01-13T01:00:11.032Z,2.60
2023-01-13T01:04:16.535Z,6.97
2023-01-13T01:08:22.035Z,7.77
2023-01-13T01:12:27.516Z,2.20
2023-01-13T01:16:34.433Z,9.53
2023-01-13T01:20:39.878Z,3.50
2023-01-13T01:24:47.389Z,6.67
2023-01-13T01:28:53.305Z,5.00
2023-01-13T01:32:59.011Z,5.33
2023-01-13T01:37:04.700Z,15.30
2023-01-13T01:41:19.322Z,3.70
2023-01-13T01:45:27.223Z,2.50
2023-01-13T01:49:38.265Z,3.00
2023-01-13T01:53:44.173Z,5.00
2023-01-13T01:58:07.665Z,4.70
2023-01-13T02:02:13.461Z,8.93
2023-01-13T02:06:19.340Z,4.70
2023-01-13T02:10:28.884Z,14.30
2023-01-13T02:14:35.649Z,5.60
2023-01-13T02:18:48.333Z,4.90
2023-01-13T02:24:09.133Z,4.37
2023-01-13T02:29:12.943Z,10.33
2023-01-13T02:33:38.184Z,3.80
2023-01-13T02:37:44.746Z,8.00
2023-01-13T02:42:37.325Z,1.87
2023-01-13T02:46:51.768Z,7.37
2023-01-13T02:51:04.675Z,4.77
2023-01-13T02:55:17.154Z,6.50
2023-01-13T02:59:26.191Z,10.83
2023-01-13T03:03:32.092Z,8.10
2023-01-13T03:08:23.052Z,14.10
2023-01-13T03:13:06.189Z,11.83
2023-01-13T03:17:40.752Z,14.27
2023-01-13T03:22:15.177Z,10.77
2023-01-13T03:26:36.616Z,12.87
2023-01-13T03:30:46.874Z,9.67
2023-01-13T03:35:03.335Z,12.77
2023-01-13T03:39:16.687Z,10.13
2023-01-13T03:43:47.859Z,9.07
2023-01-13T03:47:55.940Z,18.83
2023-01-13T03:52:07.124Z,5.20
2023-01-13T03:56:30.327Z,19.47
2023-01-13T04:00:47.141Z,11.27
2023-01-13T04:05:00.260Z,20.17
2023-01-13T04:09:17.485Z,16.60
2023-01-13T04:13:28.762Z,9.73
2023-01-13T04:17:34.335Z,11.20
2023-01-13T04:21:39.939Z,10.47
2023-01-13T04:25:47.069Z,10.33
2023-01-13T04:29:52.464Z,8.10
2023-01-13T04:33:57.982Z,7.97
2023-01-13T04:38:07.732Z,11.90
2023-01-13T04:42:13.359Z,12.40
2023-01-13T04:46:19.205Z,17.53
2023-01-13T04:50:24.897Z,11.87
2023-01-13T04:54:30.383Z,12.77
2023-01-13T04:58:35.900Z,10.80
2023-01-13T05:02:41.804Z,10.93
2023-01-13T05:06:47.276Z,13.07
2023-01-13T05:10:52.662Z,20.33
2023-01-13T05:15:16.471Z,20.43
2023-01-13T05:19:21.897Z,21.67
2023-01-13T05:23:46.741Z,21.03
2023-01-13T05:27:56.593Z,18.70
2023-01-13T05:32:02.646Z,23.73
2023-01-13T05:36:08.721Z,19.80
2023-01-13T05:40:35.740Z,19.57
2023-01-13T05:44:41.163Z,23.87
2023-01-13T05:48:47.171Z,22.23
2023-01-13T05:52:52.623Z,16.30
2023-01-13T05:56:58.052Z,28.23
2023-01-13T06:01:09.015Z,13.10
2023-01-13T06:05:14.741Z,12.87
2023-01-13T06:09:21.134Z,18.10
2023-01-13T06:13:27.238Z,16.80
2023-01-13T06:17:32.803Z,17.03
2023-01-13T06:21:39.024Z,18.83
2023-01-13T06:26:02.339Z,22.20
2023-01-13T06:30:08.842Z,14.30
2023-01-13T06:34:15.445Z,13.30
2023-01-13T06:38:22.772Z,21.47
2023-01-13T06:42:49.366Z,20.77
2023-01-13T06:46:54.887Z,15.65
2023-01-13T06:51:01.186Z,16.90
2023-01-13T06:55:07.133Z,15.37
2023-01-13T06:59:12.633Z,8.33
2023-01-13T07:03:20.590Z,27.00
2023-01-13T07:07:54.348Z,14.50
2023-01-13T07:12:20.235Z,15.23
2023-01-13T07:16:46.350Z,19.73
2023-01-13T07:21:06.918Z,13.93
2023-01-13T07:25:12.514Z,18.17
2023-01-13T07:29:18.079Z,20.13
2023-01-13T07:33:24.135Z,28.60
2023-01-13T07:37:29.621Z,18.87
2023-01-13T07:41:53.667Z,21.30
2023-01-13T07:46:05.686Z,12.43
2023-01-13T07:50:11.606Z,15.60
2023-01-13T07:54:17.204Z,21.37
2023-01-13T07:58:26.076Z,20.10
2023-01-13T08:02:31.599Z,12.27
2023-01-13T08:06:39.620Z,16.43
2023-01-13T08:10:45.197Z,15.10
2023-01-13T08:14:51.751Z,10.73
2023-01-13T08:18:58.707Z,21.17
2023-01-13T08:23:07.115Z,18.30
2023-01-13T08:27:13.143Z,12.50
2023-01-13T08:31:20.043Z,13.47
2023-01-13T08:35:25.643Z,15.83
2023-01-13T08:39:31.173Z,19.30
2023-01-13T08:43:36.689Z,13.47
2023-01-13T08:47:42.441Z,15.60
2023-01-13T08:51:48.721Z,15.93
2023-01-13T08:55:54.212Z,24.27
2023-01-13T08:59:59.683Z,13.17
2023-01-13T09:04:07.212Z,19.27
2023-01-13T09:08:16.357Z,11.17
2023-01-13T09:12:40.600Z,15.83
2023-01-13T09:16:46.021Z,18.40
2023-01-13T09:20:51.608Z,17.00
2023-01-13T09:24:57.202Z,18.67
2023-01-13T09:29:02.620Z,28.00
2023-01-13T09:33:26.438Z,18.80
2023-01-13T09:37:38.483Z,15.70
2023-01-13T09:42:07.094Z,23.30
2023-01-13T09:46:37.695Z,15.40
2023-01-13T09:51:02.843Z,9.80
2023-01-13T09:55:17.812Z,13.20
2023-01-13T09:59:23.986Z,22.03
2023-01-13T10:03:35.668Z,13.73
2023-01-13T10:08:12.236Z,14.30
2023-01-13T10:12:42.399Z,17.73
2023-01-13T10:17:21.158Z,15.07
2023-01-13T10:21:46.089Z,13.17
2023-01-13T10:26:16.478Z,12.17
2023-01-13T10:30:31.852Z,10.03
2023-01-13T10:34:51.078Z,14.83
2023-01-13T10:39:10.355Z,8.67
2023-01-13T10:43:15.933Z,11.00
2023-01-13T10:47:28.850Z,11.47
2023-01-13T10:51:43.166Z,21.30
2023-01-13T10:56:05.618Z,7.83
2023-01-13T11:00:29.484Z,13.23
2023-01-13T11:04:42.829Z,7.20
2023-01-13T11:08:52.094Z,12.97
2023-01-13T11:13:13.706Z,8.00
2023-01-13T11:17:34.104Z,7.53
2023-01-13T11:22:03.025Z,7.33
2023-01-13T11:26:30.093Z,12.70
2023-01-13T11:30:52.521Z,6.87
2023-01-13T11:35:05.165Z,6.30
2023-01-13T11:39:43.325Z,7.60
2023-01-13T11:44:19.358Z,10.20
2023-01-13T11:48:31.655Z,4.80
2023-01-13T11:53:38.863Z,6.33
2023-01-13T11:58:19.227Z,8.43
2023-01-13T12:02:42.552Z,9.03
2023-01-13T12:07:13.307Z,8.03
2023-01-13T12:12:22.445Z,6.77
2023-01-13T12:16:29.471Z,7.10
2023-01-13T12:21:03.793Z,10.00
2023-01-13T12:25:28.742Z,7.13
2023-01-13T12:29:37.300Z,10.00
2023-01-13T12:33:57.796Z,8.10
2023-01-13T12:38:56.743Z,8.30
2023-01-13T12:43:42.038Z,4.23
2023-01-13T12:47:47.843Z,10.13
2023-01-13T12:51:56.008Z,7.77
2023-01-13T12:56:29.389Z,6.20
2023-01-13T13:00:40.756Z,12.83
2023-01-13T13:04:51.202Z,5.57
2023-01-13T13:09:42.210Z,14.13
2023-01-13T13:13:48.983Z,8.67
2023-01-13T13:18:20.394Z,9.00
2023-01-13T13:22:41.449Z,7.53
2023-01-13T13:26:47.338Z,11.93
2023-01-13T13:31:32.924Z,6.90
2023-01-13T13:36:02.611Z,6.03
2023-01-13T13:40:30.732Z,7.60
2023-01-13T13:44:59.749Z,8.60
2023-01-13T13:49:05.289Z,4.63
2023-01-13T13:53:11.294Z,7.83
2023-01-13T13:57:28.193Z,4.10
2023-01-13T14:01:40.196Z,7.20
2023-01-13T14:06:04.193Z,11.17
2023-01-13T14:10:28.608Z,6.60
2023-01-13T14:14:37.175Z,9.10
2023-01-13T14:18:47.615Z,4.97
2023-01-13T14:22:54.520Z,8.77
2023-01-13T14:27:17.251Z,9.93
2023-01-13T14:31:23.875Z,9.57
2023-01-13T14:35:30.313Z,4.70
2023-01-13T14:39:43.629Z,10.40
2023-01-13T14:43:53.943Z,6.50
2023-01-13T14:48:01.837Z,5.40
2023-01-13T14:52:20.507Z,7.47
2023-01-13T14:56:47.158Z,9.43
2023-01-13T15:01:29.822Z,5.20
2023-01-13T15:05:39.159Z,6.30
2023-01-13T15:09:45.446Z,8.80
2023-01-13T15:14:01.584Z,7.13
2023-01-13T15:18:17.392Z,12.13
2023-01-13T15:22:23.249Z,5.87
2023-01-13T15:26:30.721Z,6.90
2023-01-13T15:30:36.353Z,3.23
2023-01-13T15:34:47.003Z,3.20
2023-01-13T15:38:53.046Z,3.77
2023-01-13T15:43:17.648Z,2.83
2023-01-13T15:47:24.948Z,3.13
2023-01-13T15:51:30.561Z,2.87
2023-01-13T15:55:38.749Z,4.57
2023-01-13T15:59:44.282Z,4.60
2023-01-13T16:03:50.084Z,5.53
2023-01-13T16:07:55.869Z,10.33
2023-01-13T16:12:01.424Z,4.70
2023-01-13T16:16:22.419Z,10.17
2023-01-13T16:20:28.053Z,5.90
2023-01-13T16:24:33.678Z,4.50
2023-01-13T16:28:39.220Z,13.80
2023-01-13T16:32:44.770Z,2.57
2023-01-13T16:36:50.349Z,4.70
2023-01-13T16:40:57.366Z,4.07
2023-01-13T16:45:08.347Z,9.13
2023-01-13T16:49:16.069Z,4.20
2023-01-13T16:53:21.608Z,2.73
2023-01-13T16:57:27.189Z,2.87
2023-01-13T17:01:37.064Z,4.53
2023-01-13T17:05:45.322Z,4.63
2023-01-13T17:09:50.948Z,1.80
2023-01-13T17:13:56.606Z,4.03
2023-01-13T17:18:02.651Z,2.50
2023-01-13T17:22:08.167Z,1.57
2023-01-13T17:26:37.333Z,3.90
2023-01-13T17:30:44.201Z,3.87
2023-01-13T17:34:50.946Z,4.43
2023-01-13T17:38:57.282Z,3.10
2023-01-13T17:43:02.882Z,5.27
2023-01-13T17:47:08.677Z,2.77
2023-01-13T17:51:16.637Z,10.50
2023-01-13T17:55:22.375Z,9.83
2023-01-13T17:59:27.992Z,2.40
2023-01-13T18:03:33.589Z,6.90
2023-01-13T18:07:39.158Z,7.03
2023-01-13T18:11:47.131Z,5.77
2023-01-13T18:16:11.544Z,6.37
2023-01-13T18:20:37.246Z,5.03
2023-01-13T18:25:01.683Z,6.80
2023-01-13T18:29:07.303Z,2.57
2023-01-13T18:33:12.808Z,7.27
2023-01-13T18:37:18.736Z,4.50
2023-01-13T18:41:43.104Z,6.30
2023-01-13T18:45:51.370Z,5.57
2023-01-13T18:49:57.818Z,4.03
2023-01-13T18:54:03.549Z,6.23
2023-01-13T18:58:09.222Z,3.47
2023-01-13T19:02:20.849Z,4.30
2023-01-13T19:06:28.368Z,4.20
2023-01-13T19:10:37.516Z,2.70
2023-01-13T19:14:44.618Z,6.50
2023-01-13T19:18:50.413Z,5.67
2023-01-13T19:22:56.075Z,11.33
2023-01-13T19:27:01.865Z,4.10
2023-01-13T19:31:10.765Z,3.60
2023-01-13T19:35:17.964Z,9.20
2023-01-13T19:39:23.954Z,5.60
2023-01-13T19:43:50.424Z,5.20
2023-01-13T19:47:57.422Z,6.43
2023-01-13T19:52:03.882Z,2.47
2023-01-13T19:56:14.512Z,4.47
2023-01-13T20:00:20.647Z,10.70
2023-01-13T20:04:34.064Z,6.03
2023-01-13T20:08:40.014Z,8.60
2023-01-13T20:12:45.692Z,5.03
2023-01-13T20:16:51.249Z,9.90
2023-01-13T20:20:56.820Z,1.20
2023-01-13T20:25:02.489Z,9.67
2023-01-13T20:29:08.088Z,8.83
2023-01-13T20:33:13.794Z,6.53
2023-01-13T20:37:19.373Z,7.83
2023-01-13T20:41:43.627Z,5.53
2023-01-13T20:45:49.819Z,7.77
2023-01-13T20:49:55.418Z,5.87
2023-01-13T20:54:01.262Z,11.67
2023-01-13T20:58:06.817Z,13.03
2023-01-13T21:02:15.267Z,9.10
2023-01-13T21:06:20.783Z,4.47
2023-01-13T21:10:26.344Z,11.80
2023-01-13T21:14:50.329Z,12.63
2023-01-13T21:19:07.722Z,7.50
2023-01-13T21:23:13.488Z,7.93
2023-01-13T21:27:19.277Z,5.70
2023-01-13T21:31:27.057Z,11.53
2023-01-13T21:35:32.784Z,3.50
2023-01-13T21:39:38.414Z,15.77
2023-01-13T21:44:02.355Z,9.93
2023-01-13T21:48:07.976Z,8.63
2023-01-13T21:52:15.059Z,10.00
2023-01-13T21:56:21.966Z,5.77
2023-01-13T22:00:31.027Z,7.10
2023-01-13T22:04:36.838Z,8.10
2023-01-13T22:08:42.618Z,6.23
2023-01-13T22:12:49.295Z,10.20
2023-01-13T22:16:56.971Z,15.93
2023-01-13T22:21:03.140Z,5.80
2023-01-13T22:25:12.118Z,5.67
2023-01-13T22:29:17.993Z,14.13
2023-01-13T22:33:23.634Z,11.47
2023-01-13T22:37:29.207Z,10.27
2023-01-13T22:41:44.658Z,8.73
2023-01-13T22:46:12.214Z,9.63
2023-01-13T22:50:27.737Z,11.43
2023-01-13T22:54:43.760Z,19.73
2023-01-13T22:59:02.108Z,6.47
2023-01-13T23:03:18.703Z,16.10
2023-01-13T23:07:35.483Z,9.30
2023-01-13T23:11:51.417Z,16.80
2023-01-13T23:16:12.742Z,11.03
2023-01-13T23:20:30.381Z,6.17
2023-01-13T23:24:46.168Z,6.77
2023-01-13T23:29:11.906Z,12.03
2023-01-13T23:33:27.483Z,12.13
2023-01-13T23:37:43.490Z,11.53
2023-01-13T23:41:59.581Z,12.37
2023-01-13T23:46:16.806Z,7.23
2023-01-13T23:50:32.392Z,9.67
2023-01-13T23:54:47.863Z,10.43
2023-01-13T23:59:03.315Z,11.63
